sensor_id;sensor_type;location;lat;lon;timestamp;temperature;humidity
3713;DHT22;1872;51.406;6.856;2023-01-13T00:01:11;10.10;99.90
3713;DHT22;1872;51.406;6.856;2023-01-13T00:03:37;10.10;99.90
3713;DHT22;1872;51.406;6.856;2023-01-13T00:06:04;10.10;99.90
3713;DHT22;1872;51.406;6.856;2023-01-13T00:08:30;10.10;99.90
3713;DHT22;1872;51.406;6.856;2023-01-13T00:10:56;10.10;99.90
3713;DHT22;1872;51.406;6.856;2023-01-13T00:13:22;10.10;99.90
3713;DHT22;1872;51.406;6.856;2023-01-13T00:15:58;10.10;99.90
3713;DHT22;1872;51.406;6.856;2023-01-13T00:18:25;10.10;99.90
3713;DHT22;1872;51.406;6.856;2023-01-13T00:21:00;10.10;99.90
3713;DHT22;1872;51.406;6.856;2023-01-13T00:23:27;10.10;99.90
3713;DHT22;1872;51.406;6.856;2023-01-13T00:25:57;10.10;99.90
3713;DHT22;1872;51.406;6.856;2023-01-13T00:28:24;10.00;99.90
3713;DHT22;1872;51.406;6.856;2023-01-13T00:30:50;10.00;99.90
3713;DHT22;1872;51.406;6.856;2023-01-13T00:33:15;10.00;99.90
3713;DHT22;1872;51.406;6.856;2023-01-13T00:35:41;10.00;99.90
3713;DHT22;1872;51.406;6.856;2023-01-13T00:38:07;10.00;99.90
3713;DHT22;1872;51.406;6.856;2023-01-13T00:40:32;9.90;99.90
3713;DHT22;1872;51.406;6.856;2023-01-13T00:42:58;9.90;99.90
3713;DHT22;1872;51.406;6.856;2023-01-13T00:45:43;9.90;99.90
3713;DHT22;1872;51.406;6.856;2023-01-13T00:48:09;9.90;99.90
3713;DHT22;1872;51.406;6.856;2023-01-13T00:50:34;9.90;99.90
3713;DHT22;1872;51.406;6.856;2023-01-13T00:53:00;9.90;99.90
3713;DHT22;1872;51.406;6.856;2023-01-13T00:55:26;9.90;99.90
3713;DHT22;1872;51.406;6.856;2023-01-13T00:57:54;9.90;99.90
3713;DHT22;1872;51.406;6.856;2023-01-13T01:00:20;9.80;99.90
3713;DHT22;1872;51.406;6.856;2023-01-13T01:02:45;9.80;99.90
3713;DHT22;1872;51.406;6.856;2023-01-13T01:05:11;9.80;99.90
3713;DHT22;1872;51.406;6.856;2023-01-13T01:07:37;9.70;99.90
3713;DHT22;1872;51.406;6.856;2023-01-13T01:10:03;9.70;99.90
3713;DHT22;1872;51.406;6.856;2023-01-13T01:12:28;9.70;99.90
3713;DHT22;1872;51.406;6.856;2023-01-13T01:14:54;9.70;99.90
3713;DHT22;1872;51.406;6.856;2023-01-13T01:17:20;9.70;99.90
3713;DHT22;1872;51.406;6.856;2023-01-13T01:19:45;9.70;99.90
3713;DHT22;1872;51.406;6.856;2023-01-13T01:22:11;9.70;99.90
3713;DHT22;1872;51.406;6.856;2023-01-13T01:24:36;9.60;99.90
3713;DHT22;1872;51.406;6.856;2023-01-13T01:27:02;9.60;99.90
3713;DHT22;1872;51.406;6.856;2023-01-13T01:29:28;9.60;99.90
3713;DHT22;1872;51.406;6.856;2023-01-13T01:31:56;9.60;99.90
3713;DHT22;1872;51.406;6.856;2023-01-13T01:34:22;9.60;99.90
3713;DHT22;1872;51.406;6.856;2023-01-13T01:36:47;9.60;99.90
3713;DHT22;1872;51.406;6.856;2023-01-13T01:39:13;9.60;99.90
3713;DHT22;1872;51.406;6.856;2023-01-13T01:41:38;9.60;99.90
3713;DHT22;1872;51.406;6.856;2023-01-13T01:44:49;9.60;99.90
3713;DHT22;1872;51.406;6.856;2023-01-13T01:47:17;9.60;99.90
3713;DHT22;1872;51.406;6.856;2023-01-13T01:49:44;9.60;99.90
3713;DHT22;1872;51.406;6.856;2023-01-13T01:52:36;9.60;99.90
3713;DHT22;1872;51.406;6.856;2023-01-13T01:55:36;9.50;99.90
3713;DHT22;1872;51.406;6.856;2023-01-13T01:58:18;9.60;99.90
3713;DHT22;1872;51.406;6.856;2023-01-13T02:00:46;9.50;99.90
3713;DHT22;1872;51.406;6.856;2023-01-13T02:03:12;9.50;99.90
3713;DHT22;1872;51.406;6.856;2023-01-13T02:05:39;9.40;99.90
3713;DHT22;1872;51.406;6.856;2023-01-13T02:08:07;9.40;99.90
3713;DHT22;1872;51.406;6.856;2023-01-13T02:10:33;9.30;99.90
3713;DHT22;1872;51.406;6.856;2023-01-13T02:13:01;9.30;99.90
3713;DHT22;1872;51.406;6.856;2023-01-13T02:15:37;9.30;99.90
3713;DHT22;1872;51.406;6.856;2023-01-13T02:18:27;9.20;99.90
3713;DHT22;1872;51.406;6.856;2023-01-13T02:35:16;9.00;99.90
3713;DHT22;1872;51.406;6.856;2023-01-13T02:37:44;9.00;99.90
3713;DHT22;1872;51.406;6.856;2023-01-13T02:42:56;9.00;99.90
3713;DHT22;1872;51.406;6.856;2023-01-13T02:45:51;9.00;99.90
3713;DHT22;1872;51.406;6.856;2023-01-13T02:48:20;9.00;99.90
3713;DHT22;1872;51.406;6.856;2023-01-13T02:50:54;9.00;99.90
3713;DHT22;1872;51.406;6.856;2023-01-13T02:53:24;9.00;99.90
3713;DHT22;1872;51.406;6.856;2023-01-13T02:55:53;9.00;99.90
3713;DHT22;1872;51.406;6.856;2023-01-13T02:58:25;8.90;99.90
3713;DHT22;1872;51.406;6.856;2023-01-13T03:00:51;8.90;99.90
3713;DHT22;1872;51.406;6.856;2023-01-13T03:03:16;8.90;99.90
3713;DHT22;1872;51.406;6.856;2023-01-13T03:05:43;8.80;99.90
3713;DHT22;1872;51.406;6.856;2023-01-13T03:08:20;8.80;99.90
3713;DHT22;1872;51.406;6.856;2023-01-13T03:14:11;8.70;99.90
3713;DHT22;1872;51.406;6.856;2023-01-13T03:17:03;8.60;99.90
3713;DHT22;1872;51.406;6.856;2023-01-13T03:27:09;8.40;99.90
3713;DHT22;1872;51.406;6.856;2023-01-13T03:29:54;8.30;99.90
3713;DHT22;1872;51.406;6.856;2023-01-13T03:34:54;8.20;99.90
3713;DHT22;1872;51.406;6.856;2023-01-13T03:37:26;8.10;99.90
3713;DHT22;1872;51.406;6.856;2023-01-13T03:39:58;8.10;99.90
3713;DHT22;1872;51.406;6.856;2023-01-13T03:42:28;8.00;99.90
3713;DHT22;1872;51.406;6.856;2023-01-13T03:45:11;7.90;99.90
3713;DHT22;1872;51.406;6.856;2023-01-13T03:47:43;7.90;99.90
3713;DHT22;1872;51.406;6.856;2023-01-13T03:50:19;7.80;99.90
3713;DHT22;1872;51.406;6.856;2023-01-13T03:52:49;7.80;99.90
3713;DHT22;1872;51.406;6.856;2023-01-13T03:55:20;7.70;99.90
3713;DHT22;1872;51.406;6.856;2023-01-13T04:00:22;7.60;99.90
3713;DHT22;1872;51.406;6.856;2023-01-13T04:03:04;7.60;99.90
3713;DHT22;1872;51.406;6.856;2023-01-13T04:05:33;7.60;99.90
3713;DHT22;1872;51.406;6.856;2023-01-13T04:08:11;7.50;99.90
3713;DHT22;1872;51.406;6.856;2023-01-13T04:10:45;7.50;99.90
3713;DHT22;1872;51.406;6.856;2023-01-13T04:13:16;7.50;99.90
3713;DHT22;1872;51.406;6.856;2023-01-13T04:15:45;7.50;99.90
3713;DHT22;1872;51.406;6.856;2023-01-13T04:20:44;7.50;99.90
3713;DHT22;1872;51.406;6.856;2023-01-13T04:23:10;7.50;99.90
3713;DHT22;1872;51.406;6.856;2023-01-13T04:25:39;7.50;99.90
3713;DHT22;1872;51.406;6.856;2023-01-13T04:28:08;7.50;99.90
3713;DHT22;1872;51.406;6.856;2023-01-13T04:30:35;7.60;99.90
3713;DHT22;1872;51.406;6.856;2023-01-13T04:33:00;7.70;99.90
3713;DHT22;1872;51.406;6.856;2023-01-13T04:35:26;7.70;99.90
3713;DHT22;1872;51.406;6.856;2023-01-13T04:37:52;7.80;99.90
3713;DHT22;1872;51.406;6.856;2023-01-13T04:40:17;7.80;99.90
3713;DHT22;1872;51.406;6.856;2023-01-13T04:42:44;7.80;99.90
3713;DHT22;1872;51.406;6.856;2023-01-13T04:45:11;7.90;99.90
3713;DHT22;1872;51.406;6.856;2023-01-13T04:47:37;8.00;99.90
3713;DHT22;1872;51.406;6.856;2023-01-13T04:50:03;8.00;99.90
3713;DHT22;1872;51.406;6.856;2023-01-13T04:52:29;8.00;99.90
3713;DHT22;1872;51.406;6.856;2023-01-13T04:54:55;8.00;99.90
3713;DHT22;1872;51.406;6.856;2023-01-13T04:57:22;8.10;99.90
3713;DHT22;1872;51.406;6.856;2023-01-13T04:59:47;8.10;99.90
3713;DHT22;1872;51.406;6.856;2023-01-13T05:02:13;8.10;99.90
3713;DHT22;1872;51.406;6.856;2023-01-13T05:04:47;8.20;99.90
3713;DHT22;1872;51.406;6.856;2023-01-13T05:07:14;8.20;99.90
3713;DHT22;1872;51.406;6.856;2023-01-13T05:09:40;8.20;99.90
3713;DHT22;1872;51.406;6.856;2023-01-13T05:12:07;8.20;99.90
3713;DHT22;1872;51.406;6.856;2023-01-13T05:14:52;8.20;99.90
3713;DHT22;1872;51.406;6.856;2023-01-13T05:17:36;8.20;99.90
3713;DHT22;1872;51.406;6.856;2023-01-13T05:20:03;8.20;99.90
3713;DHT22;1872;51.406;6.856;2023-01-13T05:22:29;8.20;99.90
3713;DHT22;1872;51.406;6.856;2023-01-13T05:25:13;8.20;99.90
3713;DHT22;1872;51.406;6.856;2023-01-13T05:27:51;8.30;99.90
3713;DHT22;1872;51.406;6.856;2023-01-13T05:30:19;8.30;99.90
3713;DHT22;1872;51.406;6.856;2023-01-13T05:32:45;8.30;99.90
3713;DHT22;1872;51.406;6.856;2023-01-13T05:35:10;8.30;99.90
3713;DHT22;1872;51.406;6.856;2023-01-13T05:37:36;8.30;99.90
3713;DHT22;1872;51.406;6.856;2023-01-13T05:40:02;8.30;99.90
3713;DHT22;1872;51.406;6.856;2023-01-13T05:42:46;8.30;99.90
3713;DHT22;1872;51.406;6.856;2023-01-13T05:45:30;8.30;99.90
3713;DHT22;1872;51.406;6.856;2023-01-13T05:47:57;8.30;99.90
3713;DHT22;1872;51.406;6.856;2023-01-13T05:50:23;8.30;99.90
3713;DHT22;1872;51.406;6.856;2023-01-13T05:52:50;8.30;99.90
3713;DHT22;1872;51.406;6.856;2023-01-13T05:55:15;8.30;99.90
3713;DHT22;1872;51.406;6.856;2023-01-13T05:57:41;8.30;99.90
3713;DHT22;1872;51.406;6.856;2023-01-13T06:00:08;8.20;99.90
3713;DHT22;1872;51.406;6.856;2023-01-13T06:02:34;8.20;99.90
3713;DHT22;1872;51.406;6.856;2023-01-13T06:04:59;8.10;99.90
3713;DHT22;1872;51.406;6.856;2023-01-13T06:07:25;8.20;99.90
3713;DHT22;1872;51.406;6.856;2023-01-13T06:09:51;8.10;99.90
3713;DHT22;1872;51.406;6.856;2023-01-13T06:12:16;8.20;99.90
3713;DHT22;1872;51.406;6.856;2023-01-13T06:14:42;8.20;99.90
3713;DHT22;1872;51.406;6.856;2023-01-13T06:17:13;8.20;99.90
3713;DHT22;1872;51.406;6.856;2023-01-13T06:19:39;8.20;99.90
3713;DHT22;1872;51.406;6.856;2023-01-13T06:22:22;8.10;99.90
3713;DHT22;1872;51.406;6.856;2023-01-13T06:24:49;8.10;99.90
3713;DHT22;1872;51.406;6.856;2023-01-13T06:27:15;8.10;99.90
3713;DHT22;1872;51.406;6.856;2023-01-13T06:29:42;8.00;99.90
3713;DHT22;1872;51.406;6.856;2023-01-13T06:32:36;8.00;99.90
3713;DHT22;1872;51.406;6.856;2023-01-13T06:35:06;7.90;99.90
3713;DHT22;1872;51.406;6.856;2023-01-13T06:37:33;7.80;99.90
3713;DHT22;1872;51.406;6.856;2023-01-13T06:40:01;7.80;99.90
3713;DHT22;1872;51.406;6.856;2023-01-13T06:42:30;7.80;99.90
3713;DHT22;1872;51.406;6.856;2023-01-13T06:45:15;7.80;99.90
3713;DHT22;1872;51.406;6.856;2023-01-13T06:47:41;7.80;99.90
3713;DHT22;1872;51.406;6.856;2023-01-13T06:50:09;7.80;99.90
3713;DHT22;1872;51.406;6.856;2023-01-13T06:52:34;7.80;99.90
3713;DHT22;1872;51.406;6.856;2023-01-13T06:55:00;7.80;99.90
3713;DHT22;1872;51.406;6.856;2023-01-13T06:57:29;7.80;99.90
3713;DHT22;1872;51.406;6.856;2023-01-13T06:59:54;7.80;99.90
3713;DHT22;1872;51.406;6.856;2023-01-13T07:02:20;7.90;99.90
3713;DHT22;1872;51.406;6.856;2023-01-13T07:04:46;7.90;99.90
3713;DHT22;1872;51.406;6.856;2023-01-13T07:07:12;7.90;99.90
3713;DHT22;1872;51.406;6.856;2023-01-13T07:09:38;7.80;99.90
3713;DHT22;1872;51.406;6.856;2023-01-13T07:12:04;7.80;99.90
3713;DHT22;1872;51.406;6.856;2023-01-13T07:14:30;7.70;99.90
3713;DHT22;1872;51.406;6.856;2023-01-13T07:17:15;7.70;99.90
3713;DHT22;1872;51.406;6.856;2023-01-13T07:19:40;7.70;99.90
3713;DHT22;1872;51.406;6.856;2023-01-13T07:22:06;7.70;99.90
3713;DHT22;1872;51.406;6.856;2023-01-13T07:24:32;7.70;99.90
3713;DHT22;1872;51.406;6.856;2023-01-13T07:26:57;7.70;99.90
3713;DHT22;1872;51.406;6.856;2023-01-13T07:29:23;7.60;99.90
3713;DHT22;1872;51.406;6.856;2023-01-13T07:31:49;7.60;99.90
3713;DHT22;1872;51.406;6.856;2023-01-13T07:34:15;7.60;99.90
3713;DHT22;1872;51.406;6.856;2023-01-13T07:36:40;7.60;99.90
3713;DHT22;1872;51.406;6.856;2023-01-13T07:39:06;7.60;99.90
3713;DHT22;1872;51.406;6.856;2023-01-13T07:41:32;7.60;99.90
3713;DHT22;1872;51.406;6.856;2023-01-13T07:44:17;7.70;99.90
3713;DHT22;1872;51.406;6.856;2023-01-13T07:46:42;7.70;99.90
3713;DHT22;1872;51.406;6.856;2023-01-13T07:49:08;7.80;99.90
3713;DHT22;1872;51.406;6.856;2023-01-13T07:51:35;7.90;99.90
3713;DHT22;1872;51.406;6.856;2023-01-13T07:54:01;7.90;99.90
3713;DHT22;1872;51.406;6.856;2023-01-13T07:56:27;8.00;99.90
3713;DHT22;1872;51.406;6.856;2023-01-13T07:58:53;8.00;99.90
3713;DHT22;1872;51.406;6.856;2023-01-13T08:01:19;8.00;99.90
3713;DHT22;1872;51.406;6.856;2023-01-13T08:03:44;8.10;99.90
3713;DHT22;1872;51.406;6.856;2023-01-13T08:06:10;8.10;99.90
3713;DHT22;1872;51.406;6.856;2023-01-13T08:08:37;8.10;99.90
3713;DHT22;1872;51.406;6.856;2023-01-13T08:11:05;8.10;99.90
3713;DHT22;1872;51.406;6.856;2023-01-13T08:13:30;8.10;99.90
3713;DHT22;1872;51.406;6.856;2023-01-13T08:16:05;8.20;99.90
3713;DHT22;1872;51.406;6.856;2023-01-13T08:18:34;8.30;99.90
3713;DHT22;1872;51.406;6.856;2023-01-13T08:21:02;8.50;99.90
3713;DHT22;1872;51.406;6.856;2023-01-13T08:23:28;8.50;99.90
3713;DHT22;1872;51.406;6.856;2023-01-13T08:25:54;8.80;99.90
3713;DHT22;1872;51.406;6.856;2023-01-13T08:28:23;8.80;99.90
3713;DHT22;1872;51.406;6.856;2023-01-13T08:30:49;8.80;99.90
3713;DHT22;1872;51.406;6.856;2023-01-13T08:33:17;8.90;99.90
3713;DHT22;1872;51.406;6.856;2023-01-13T08:35:43;8.80;99.90
3713;DHT22;1872;51.406;6.856;2023-01-13T08:38:08;8.80;99.90
3713;DHT22;1872;51.406;6.856;2023-01-13T08:40:34;8.80;99.90
3713;DHT22;1872;51.406;6.856;2023-01-13T08:43:00;8.70;99.90
3713;DHT22;1872;51.406;6.856;2023-01-13T08:45:26;8.80;99.90
3713;DHT22;1872;51.406;6.856;2023-01-13T08:47:51;8.90;99.90
3713;DHT22;1872;51.406;6.856;2023-01-13T08:50:17;8.90;99.90
3713;DHT22;1872;51.406;6.856;2023-01-13T08:52:45;8.90;99.90
3713;DHT22;1872;51.406;6.856;2023-01-13T08:55:11;8.80;99.90
3713;DHT22;1872;51.406;6.856;2023-01-13T08:57:36;8.80;99.90
3713;DHT22;1872;51.406;6.856;2023-01-13T09:00:04;8.80;99.90
3713;DHT22;1872;51.406;6.856;2023-01-13T09:02:31;8.80;99.90
3713;DHT22;1872;51.406;6.856;2023-01-13T09:04:58;8.80;99.90
3713;DHT22;1872;51.406;6.856;2023-01-13T09:07:27;8.80;99.90
3713;DHT22;1872;51.406;6.856;2023-01-13T09:09:53;8.70;99.90
3713;DHT22;1872;51.406;6.856;2023-01-13T09:12:20;8.70;99.90
3713;DHT22;1872;51.406;6.856;2023-01-13T09:15:05;8.70;99.90
3713;DHT22;1872;51.406;6.856;2023-01-13T09:17:31;8.70;99.90
3713;DHT22;1872;51.406;6.856;2023-01-13T09:19:56;8.70;99.90
3713;DHT22;1872;51.406;6.856;2023-01-13T09:22:22;8.70;99.90
3713;DHT22;1872;51.406;6.856;2023-01-13T09:24:52;8.60;99.90
3713;DHT22;1872;51.406;6.856;2023-01-13T09:27:17;8.60;99.90
3713;DHT22;1872;51.406;6.856;2023-01-13T09:29:43;8.60;99.90
3713;DHT22;1872;51.406;6.856;2023-01-13T09:32:13;8.50;99.90
3713;DHT22;1872;51.406;6.856;2023-01-13T09:34:39;8.50;99.90
3713;DHT22;1872;51.406;6.856;2023-01-13T09:37:24;8.50;99.90
3713;DHT22;1872;51.406;6.856;2023-01-13T09:39:50;8.50;99.90
3713;DHT22;1872;51.406;6.856;2023-01-13T09:45:29;8.60;99.90
3713;DHT22;1872;51.406;6.856;2023-01-13T09:53:23;8.70;99.90
3713;DHT22;1872;51.406;6.856;2023-01-13T09:55:50;8.80;99.90
3713;DHT22;1872;51.406;6.856;2023-01-13T09:58:17;8.80;99.90
3713;DHT22;1872;51.406;6.856;2023-01-13T10:03:30;8.80;99.90
3713;DHT22;1872;51.406;6.856;2023-01-13T10:06:15;8.90;99.90
3713;DHT22;1872;51.406;6.856;2023-01-13T10:08:44;8.90;99.90
3713;DHT22;1872;51.406;6.856;2023-01-13T10:11:39;8.90;99.90
3713;DHT22;1872;51.406;6.856;2023-01-13T10:14:39;9.00;99.90
3713;DHT22;1872;51.406;6.856;2023-01-13T10:17:14;9.00;99.90
3713;DHT22;1872;51.406;6.856;2023-01-13T10:19:49;9.00;99.90
3713;DHT22;1872;51.406;6.856;2023-01-13T10:28:01;9.20;99.90
3713;DHT22;1872;51.406;6.856;2023-01-13T10:30:40;9.20;99.90
3713;DHT22;1872;51.406;6.856;2023-01-13T10:33:17;9.30;99.90
3713;DHT22;1872;51.406;6.856;2023-01-13T10:35:54;9.30;99.90
3713;DHT22;1872;51.406;6.856;2023-01-13T10:38:27;9.40;99.90
3713;DHT22;1872;51.406;6.856;2023-01-13T10:40:59;9.40;99.90
3713;DHT22;1872;51.406;6.856;2023-01-13T10:43:28;9.50;99.90
3713;DHT22;1872;51.406;6.856;2023-01-13T10:46:08;9.60;99.90
3713;DHT22;1872;51.406;6.856;2023-01-13T10:48:39;9.60;99.90
3713;DHT22;1872;51.406;6.856;2023-01-13T10:53:54;9.80;99.90
3713;DHT22;1872;51.406;6.856;2023-01-13T10:56:21;9.90;99.90
3713;DHT22;1872;51.406;6.856;2023-01-13T10:58:48;9.90;99.90
3713;DHT22;1872;51.406;6.856;2023-01-13T11:01:23;10.00;99.90
3713;DHT22;1872;51.406;6.856;2023-01-13T11:03:53;10.00;99.90
3713;DHT22;1872;51.406;6.856;2023-01-13T11:06:27;10.00;99.90
3713;DHT22;1872;51.406;6.856;2023-01-13T11:08:55;10.00;99.90
3713;DHT22;1872;51.406;6.856;2023-01-13T11:11:58;9.90;99.90
3713;DHT22;1872;51.406;6.856;2023-01-13T11:14:43;9.90;99.90
3713;DHT22;1872;51.406;6.856;2023-01-13T11:17:39;9.80;99.90
3713;DHT22;1872;51.406;6.856;2023-01-13T11:20:22;9.60;99.90
3713;DHT22;1872;51.406;6.856;2023-01-13T11:22:56;9.50;99.90
3713;DHT22;1872;51.406;6.856;2023-01-13T11:25:37;9.30;99.90
3713;DHT22;1872;51.406;6.856;2023-01-13T11:28:37;9.20;99.90
3713;DHT22;1872;51.406;6.856;2023-01-13T11:36:30;9.00;99.90
3713;DHT22;1872;51.406;6.856;2023-01-13T11:39:09;9.10;99.90
3713;DHT22;1872;51.406;6.856;2023-01-13T11:41:43;9.10;99.90
3713;DHT22;1872;51.406;6.856;2023-01-13T11:46:35;9.10;99.90
3713;DHT22;1872;51.406;6.856;2023-01-13T11:49:02;9.20;99.90
3713;DHT22;1872;51.406;6.856;2023-01-13T11:51:33;9.20;99.90
3713;DHT22;1872;51.406;6.856;2023-01-13T11:54:18;9.20;99.90
3713;DHT22;1872;51.406;6.856;2023-01-13T12:00:13;9.30;99.90
3713;DHT22;1872;51.406;6.856;2023-01-13T12:03:07;9.20;99.90
3713;DHT22;1872;51.406;6.856;2023-01-13T12:05:43;9.10;99.90
3713;DHT22;1872;51.406;6.856;2023-01-13T12:08:26;9.00;99.90
3713;DHT22;1872;51.406;6.856;2023-01-13T12:11:00;8.90;99.90
3713;DHT22;1872;51.406;6.856;2023-01-13T12:24:27;8.80;99.90
3713;DHT22;1872;51.406;6.856;2023-01-13T12:26:57;8.70;99.90
3713;DHT22;1872;51.406;6.856;2023-01-13T12:29:33;8.60;99.90
3713;DHT22;1872;51.406;6.856;2023-01-13T12:32:01;8.60;99.90
3713;DHT22;1872;51.406;6.856;2023-01-13T12:37:29;8.50;99.90
3713;DHT22;1872;51.406;6.856;2023-01-13T12:40:35;8.50;99.90
3713;DHT22;1872;51.406;6.856;2023-01-13T12:43:11;8.40;99.90
3713;DHT22;1872;51.406;6.856;2023-01-13T12:51:36;8.40;99.90
3713;DHT22;1872;51.406;6.856;2023-01-13T12:57:18;8.40;99.90
3713;DHT22;1872;51.406;6.856;2023-01-13T13:02:38;8.40;99.90
3713;DHT22;1872;51.406;6.856;2023-01-13T13:07:45;8.50;99.90
3713;DHT22;1872;51.406;6.856;2023-01-13T13:10:29;8.60;99.90
3713;DHT22;1872;51.406;6.856;2023-01-13T13:13:00;8.70;99.90
3713;DHT22;1872;51.406;6.856;2023-01-13T13:15:47;8.80;99.90
3713;DHT22;1872;51.406;6.856;2023-01-13T13:21:07;8.90;99.90
3713;DHT22;1872;51.406;6.856;2023-01-13T13:39:28;8.90;99.90
3713;DHT22;1872;51.406;6.856;2023-01-13T13:42:19;8.80;99.90
3713;DHT22;1872;51.406;6.856;2023-01-13T13:45:19;8.80;99.90
3713;DHT22;1872;51.406;6.856;2023-01-13T13:48:28;8.80;99.90
3713;DHT22;1872;51.406;6.856;2023-01-13T13:51:09;8.80;99.90
3713;DHT22;1872;51.406;6.856;2023-01-13T13:53:41;8.90;99.90
3713;DHT22;1872;51.406;6.856;2023-01-13T13:56:20;8.80;99.90
3713;DHT22;1872;51.406;6.856;2023-01-13T13:58:47;8.90;99.90
3713;DHT22;1872;51.406;6.856;2023-01-13T14:01:41;8.80;99.90
3713;DHT22;1872;51.406;6.856;2023-01-13T14:04:15;8.70;99.90
3713;DHT22;1872;51.406;6.856;2023-01-13T14:09:16;8.70;99.90
3713;DHT22;1872;51.406;6.856;2023-01-13T14:11:42;8.60;99.90
3713;DHT22;1872;51.406;6.856;2023-01-13T14:14:12;8.60;99.90
3713;DHT22;1872;51.406;6.856;2023-01-13T14:16:39;8.60;99.90
3713;DHT22;1872;51.406;6.856;2023-01-13T14:19:16;8.60;99.90
3713;DHT22;1872;51.406;6.856;2023-01-13T14:21:47;8.50;99.90
3713;DHT22;1872;51.406;6.856;2023-01-13T14:24:15;8.50;99.90
3713;DHT22;1872;51.406;6.856;2023-01-13T14:26:41;8.50;99.90
3713;DHT22;1872;51.406;6.856;2023-01-13T14:29:09;8.40;99.90
3713;DHT22;1872;51.406;6.856;2023-01-13T14:31:37;8.40;99.90
3713;DHT22;1872;51.406;6.856;2023-01-13T14:34:04;8.40;99.90
3713;DHT22;1872;51.406;6.856;2023-01-13T14:41:35;8.30;99.90
3713;DHT22;1872;51.406;6.856;2023-01-13T14:46:38;8.20;99.90
3713;DHT22;1872;51.406;6.856;2023-01-13T14:49:04;8.20;99.90
3713;DHT22;1872;51.406;6.856;2023-01-13T14:51:30;8.20;99.90
3713;DHT22;1872;51.406;6.856;2023-01-13T14:53:56;8.20;99.90
3713;DHT22;1872;51.406;6.856;2023-01-13T14:56:48;8.20;99.90
3713;DHT22;1872;51.406;6.856;2023-01-13T14:59:48;8.20;99.90
3713;DHT22;1872;51.406;6.856;2023-01-13T15:07:39;8.10;99.90
3713;DHT22;1872;51.406;6.856;2023-01-13T15:10:05;8.10;99.90
3713;DHT22;1872;51.406;6.856;2023-01-13T15:12:39;8.10;99.90
3713;DHT22;1872;51.406;6.856;2023-01-13T15:15:24;8.20;99.90
3713;DHT22;1872;51.406;6.856;2023-01-13T15:17:52;8.20;99.90
3713;DHT22;1872;51.406;6.856;2023-01-13T15:20:20;8.20;99.90
3713;DHT22;1872;51.406;6.856;2023-01-13T15:22:46;8.20;99.90
3713;DHT22;1872;51.406;6.856;2023-01-13T15:25:13;8.30;99.90
3713;DHT22;1872;51.406;6.856;2023-01-13T15:27:40;8.30;99.90
3713;DHT22;1872;51.406;6.856;2023-01-13T15:32:41;8.30;99.90
3713;DHT22;1872;51.406;6.856;2023-01-13T15:35:07;8.40;99.90
3713;DHT22;1872;51.406;6.856;2023-01-13T15:37:34;8.40;99.90
3713;DHT22;1872;51.406;6.856;2023-01-13T15:40:00;8.40;99.90
3713;DHT22;1872;51.406;6.856;2023-01-13T15:42:26;8.40;99.90
3713;DHT22;1872;51.406;6.856;2023-01-13T15:45:13;8.50;99.90
3713;DHT22;1872;51.406;6.856;2023-01-13T15:47:57;8.50;99.90
3713;DHT22;1872;51.406;6.856;2023-01-13T15:50:24;8.50;99.90
3713;DHT22;1872;51.406;6.856;2023-01-13T15:52:50;8.50;99.90
3713;DHT22;1872;51.406;6.856;2023-01-13T15:55:16;8.50;99.90
3713;DHT22;1872;51.406;6.856;2023-01-13T15:57:47;8.50;99.90
3713;DHT22;1872;51.406;6.856;2023-01-13T16:00:18;8.50;99.90
3713;DHT22;1872;51.406;6.856;2023-01-13T16:02:45;8.50;99.90
3713;DHT22;1872;51.406;6.856;2023-01-13T16:05:12;8.60;99.90
3713;DHT22;1872;51.406;6.856;2023-01-13T16:07:38;8.60;99.90
3713;DHT22;1872;51.406;6.856;2023-01-13T16:10:05;8.60;99.90
3713;DHT22;1872;51.406;6.856;2023-01-13T16:12:33;8.70;99.90
3713;DHT22;1872;51.406;6.856;2023-01-13T16:14:58;8.60;99.90
3713;DHT22;1872;51.406;6.856;2023-01-13T16:17:25;8.50;99.90
3713;DHT22;1872;51.406;6.856;2023-01-13T16:19:54;8.50;99.90
3713;DHT22;1872;51.406;6.856;2023-01-13T16:22:20;8.50;99.90
3713;DHT22;1872;51.406;6.856;2023-01-13T16:24:46;8.50;99.90
3713;DHT22;1872;51.406;6.856;2023-01-13T16:27:16;8.50;99.90
3713;DHT22;1872;51.406;6.856;2023-01-13T16:29:43;8.50;99.90
3713;DHT22;1872;51.406;6.856;2023-01-13T16:32:09;8.50;99.90
3713;DHT22;1872;51.406;6.856;2023-01-13T16:34:35;8.50;99.90
3713;DHT22;1872;51.406;6.856;2023-01-13T16:37:01;8.50;99.90
3713;DHT22;1872;51.406;6.856;2023-01-13T16:39:26;8.60;99.90
3713;DHT22;1872;51.406;6.856;2023-01-13T16:41:52;8.60;99.90
3713;DHT22;1872;51.406;6.856;2023-01-13T16:44:18;8.60;99.90
3713;DHT22;1872;51.406;6.856;2023-01-13T16:46:44;8.60;99.90
3713;DHT22;1872;51.406;6.856;2023-01-13T16:49:13;8.60;99.90
3713;DHT22;1872;51.406;6.856;2023-01-13T16:51:39;8.60;99.90
3713;DHT22;1872;51.406;6.856;2023-01-13T16:54:05;8.60;99.90
3713;DHT22;1872;51.406;6.856;2023-01-13T16:56:33;8.50;99.90
3713;DHT22;1872;51.406;6.856;2023-01-13T16:59:07;8.60;99.90
3713;DHT22;1872;51.406;6.856;2023-01-13T17:01:36;8.60;99.90
3713;DHT22;1872;51.406;6.856;2023-01-13T17:04:02;8.50;99.90
3713;DHT22;1872;51.406;6.856;2023-01-13T17:06:36;8.50;99.90
3713;DHT22;1872;51.406;6.856;2023-01-13T17:09:17;8.50;99.90
3713;DHT22;1872;51.406;6.856;2023-01-13T17:11:43;8.50;99.90
3713;DHT22;1872;51.406;6.856;2023-01-13T17:14:09;8.60;99.90
3713;DHT22;1872;51.406;6.856;2023-01-13T17:16:35;8.50;99.90
3713;DHT22;1872;51.406;6.856;2023-01-13T17:19:01;8.40;99.90
3713;DHT22;1872;51.406;6.856;2023-01-13T17:21:27;8.40;99.90
3713;DHT22;1872;51.406;6.856;2023-01-13T17:23:52;8.30;99.90
3713;DHT22;1872;51.406;6.856;2023-01-13T17:26:30;8.30;99.90
3713;DHT22;1872;51.406;6.856;2023-01-13T17:29:00;8.20;99.90
3713;DHT22;1872;51.406;6.856;2023-01-13T17:31:27;8.20;99.90
3713;DHT22;1872;51.406;6.856;2023-01-13T17:33:53;8.10;99.90
3713;DHT22;1872;51.406;6.856;2023-01-13T17:36:18;8.10;99.90
3713;DHT22;1872;51.406;6.856;2023-01-13T17:38:44;8.10;99.90
3713;DHT22;1872;51.406;6.856;2023-01-13T17:41:10;8.10;99.90
3713;DHT22;1872;51.406;6.856;2023-01-13T17:43:35;8.10;99.90
3713;DHT22;1872;51.406;6.856;2023-01-13T17:46:01;8.10;99.90
3713;DHT22;1872;51.406;6.856;2023-01-13T17:48:30;8.00;99.90
3713;DHT22;1872;51.406;6.856;2023-01-13T17:50:56;8.00;99.90
3713;DHT22;1872;51.406;6.856;2023-01-13T17:53:22;8.00;99.90
3713;DHT22;1872;51.406;6.856;2023-01-13T17:55:52;8.00;99.90
3713;DHT22;1872;51.406;6.856;2023-01-13T17:58:19;8.00;99.90
3713;DHT22;1872;51.406;6.856;2023-01-13T18:00:46;8.00;99.90
3713;DHT22;1872;51.406;6.856;2023-01-13T18:03:12;8.00;99.90
3713;DHT22;1872;51.406;6.856;2023-01-13T18:05:38;8.00;99.90
3713;DHT22;1872;51.406;6.856;2023-01-13T18:08:06;8.00;99.90
3713;DHT22;1872;51.406;6.856;2023-01-13T18:10:33;8.20;99.90
3713;DHT22;1872;51.406;6.856;2023-01-13T18:12:59;8.40;99.90
3713;DHT22;1872;51.406;6.856;2023-01-13T18:15:26;8.50;99.90
3713;DHT22;1872;51.406;6.856;2023-01-13T18:17:52;8.70;99.90
3713;DHT22;1872;51.406;6.856;2023-01-13T18:20:19;8.70;99.90
3713;DHT22;1872;51.406;6.856;2023-01-13T18:23:03;8.60;99.90
3713;DHT22;1872;51.406;6.856;2023-01-13T18:25:47;8.60;99.90
3713;DHT22;1872;51.406;6.856;2023-01-13T18:28:32;8.60;99.90
3713;DHT22;1872;51.406;6.856;2023-01-13T18:30:58;8.50;99.90
3713;DHT22;1872;51.406;6.856;2023-01-13T18:33:24;8.50;99.90
3713;DHT22;1872;51.406;6.856;2023-01-13T18:35:50;8.40;99.90
3713;DHT22;1872;51.406;6.856;2023-01-13T18:38:16;8.40;99.90
3713;DHT22;1872;51.406;6.856;2023-01-13T18:40:46;8.30;99.90
3713;DHT22;1872;51.406;6.856;2023-01-13T18:43:11;8.30;99.90
3713;DHT22;1872;51.406;6.856;2023-01-13T18:45:38;8.30;99.90
3713;DHT22;1872;51.406;6.856;2023-01-13T18:48:04;8.30;99.90
3713;DHT22;1872;51.406;6.856;2023-01-13T18:50:31;8.30;99.90